Time;durP1;ratioP1;P1;durP2;ratioP2;P2;SDS_P1;SDS_P2;PMS_P1;PMS_P2;Temp;Humidity;BMP_temperature;BMP_pressure;BME280_temperature;BME280_humidity;BME280_pressure;Samples;Min_cycle;Max_cycle;Signal;HPM_P1;HPM_P2
2023/03/10 00:01:34;;;;;;;4.93;4.60;;;10.00;99.90;;;;;;5033526;28;20649;-66
2023/03/10 00:04:01;;;;;;;4.63;4.43;;;10.00;99.90;;;;;;5034313;28;20238;-66
2023/03/10 00:06:31;;;;;;;5.00;4.80;;;10.00;99.90;;;;;;5033460;28;20294;-65
2023/03/10 00:08:58;;;;;;;7.03;5.17;;;10.00;99.90;;;;;;5033250;28;20266;-66
2023/03/10 00:11:24;;;;;;;5.73;5.37;;;10.00;99.90;;;;;;5033473;28;20183;-65
2023/03/10 00:13:50;;;;;;;5.40;5.20;;;10.00;99.90;;;;;;5032061;28;20621;-66
2023/03/10 00:16:22;;;;;;;5.47;5.13;;;10.00;99.90;;;;;;5033659;28;20186;-66
2023/03/10 00:18:48;;;;;;;5.00;4.60;;;10.00;99.90;;;;;;5033281;28;20197;-65
2023/03/10 00:21:16;;;;;;;4.60;4.40;;;10.10;99.90;;;;;;5033480;28;20591;-66
2023/03/10 00:23:42;;;;;;;4.57;4.37;;;10.10;99.90;;;;;;5033175;28;20187;-65
2023/03/10 00:26:11;;;;;;;5.27;4.97;;;10.10;99.90;;;;;;5033574;28;20683;-66
2023/03/10 00:28:36;;;;;;;4.90;4.70;;;10.10;99.90;;;;;;5033183;28;20183;-66
2023/03/10 00:31:13;;;;;;;5.27;4.77;;;10.10;99.90;;;;;;5033155;28;20279;-66
2023/03/10 00:33:40;;;;;;;4.77;4.57;;;10.10;99.90;;;;;;5032964;28;20225;-65
2023/03/10 00:36:19;;;;;;;4.80;4.60;;;10.10;99.90;;;;;;5032141;28;20183;-65
2023/03/10 00:38:45;;;;;;;4.80;4.60;;;10.10;99.90;;;;;;5032673;28;20187;-65
2023/03/10 00:41:13;;;;;;;4.80;4.60;;;10.20;99.90;;;;;;5032917;28;20178;-66
2023/03/10 00:43:39;;;;;;;5.60;5.10;;;10.20;99.90;;;;;;5032670;28;20190;-66
2023/03/10 00:46:05;;;;;;;5.10;4.70;;;10.10;99.90;;;;;;5033080;28;20215;-65
2023/03/10 00:48:31;;;;;;;4.73;4.53;;;10.20;99.90;;;;;;5032664;28;20179;-65
2023/03/10 00:50:57;;;;;;;5.50;5.20;;;10.10;99.90;;;;;;5032515;28;20206;-66
2023/03/10 00:53:24;;;;;;;4.87;4.67;;;10.20;99.90;;;;;;5032852;28;20641;-66
2023/03/10 00:56:06;;;;;;;4.87;4.67;;;10.20;99.90;;;;;;5032874;28;20526;-66
2023/03/10 00:58:33;;;;;;;5.10;4.70;;;10.20;99.90;;;;;;5032518;28;20191;-65
2023/03/10 01:01:00;;;;;;;5.20;4.90;;;10.20;99.90;;;;;;5032286;28;20203;-66
2023/03/10 01:03:26;;;;;;;5.07;4.87;;;10.20;99.90;;;;;;5032883;28;20649;-66
2023/03/10 01:05:53;;;;;;;5.37;4.97;;;10.20;99.90;;;;;;5031228;28;20292;-66
2023/03/10 01:08:19;;;;;;;5.30;5.00;;;10.20;99.90;;;;;;5032699;28;20172;-66
2023/03/10 01:10:45;;;;;;;5.00;4.70;;;10.20;99.90;;;;;;5031569;28;20218;-66
2023/03/10 01:13:11;;;;;;;5.33;5.07;;;10.30;99.90;;;;;;5032877;28;20695;-66
2023/03/10 01:15:38;;;;;;;5.17;4.97;;;10.30;99.90;;;;;;5032203;28;20187;-66
2023/03/10 01:18:05;;;;;;;4.90;4.70;;;10.30;99.90;;;;;;5032393;28;20254;-67
2023/03/10 01:20:32;;;;;;;5.17;4.97;;;10.30;99.90;;;;;;5032008;28;20657;-66
2023/03/10 01:22:58;;;;;;;5.10;4.90;;;10.30;99.90;;;;;;5030774;28;20179;-66
2023/03/10 01:25:23;;;;;;;5.47;5.20;;;10.40;99.90;;;;;;5031100;28;20202;-66
2023/03/10 01:27:49;;;;;;;5.30;5.00;;;10.40;99.90;;;;;;5031642;28;20685;-66
2023/03/10 01:30:15;;;;;;;4.90;4.70;;;10.40;99.90;;;;;;5031833;28;20195;-66
2023/03/10 01:32:41;;;;;;;4.90;4.70;;;10.40;99.90;;;;;;5031734;28;20175;-67
2023/03/10 01:35:07;;;;;;;4.93;4.73;;;10.40;99.90;;;;;;5032246;28;20541;-66
2023/03/10 01:37:33;;;;;;;4.90;4.70;;;10.40;99.90;;;;;;5032224;28;20668;-66
2023/03/10 01:40:00;;;;;;;5.50;5.20;;;10.40;99.90;;;;;;5031399;28;20207;-66
2023/03/10 01:42:26;;;;;;;5.20;4.80;;;10.50;99.90;;;;;;5032053;28;20179;-66
2023/03/10 01:45:13;;;;;;;5.10;4.70;;;10.50;99.90;;;;;;5031891;28;20538;-67
2023/03/10 01:47:39;;;;;;;4.80;4.60;;;10.50;99.90;;;;;;5031509;28;20628;-66
2023/03/10 01:50:07;;;;;;;5.40;5.10;;;10.50;99.90;;;;;;5031622;28;20686;-66
2023/03/10 01:52:34;;;;;;;5.20;4.90;;;10.50;99.90;;;;;;5031840;28;20245;-66
2023/03/10 01:55:15;;;;;;;4.97;4.77;;;10.50;99.90;;;;;;5031729;28;20657;-66
2023/03/10 01:57:51;;;;;;;5.13;4.90;;;10.50;99.90;;;;;;5031868;28;20183;-66
2023/03/10 02:00:17;;;;;;;5.40;5.13;;;10.50;99.90;;;;;;5031359;28;20203;-66
2023/03/10 02:03:07;;;;;;;5.23;5.03;;;10.50;99.90;;;;;;5031555;28;20179;-66
2023/03/10 02:05:38;;;;;;;4.83;4.63;;;10.50;99.90;;;;;;5012041;28;20195;-66
2023/03/10 02:08:05;;;;;;;4.70;4.50;;;10.50;99.90;;;;;;5012024;28;20176;-66
2023/03/10 02:10:32;;;;;;;4.70;4.50;;;10.50;99.90;;;;;;5031388;28;20215;-66
2023/03/10 02:12:57;;;;;;;4.83;4.63;;;10.50;99.90;;;;;;5031580;28;20540;-66
2023/03/10 02:15:23;;;;;;;4.73;4.53;;;10.50;99.90;;;;;;5031804;28;20191;-66
2023/03/10 02:17:50;;;;;;;4.83;4.63;;;10.50;99.90;;;;;;5031551;28;20179;-66
2023/03/10 02:20:31;;;;;;;5.97;5.53;;;10.50;99.90;;;;;;5030927;28;20202;-67
2023/03/10 02:22:57;;;;;;;5.20;4.57;;;10.40;99.90;;;;;;5031414;28;20205;-66
2023/03/10 02:25:39;;;;;;;5.10;4.90;;;10.20;99.90;;;;;;5031331;28;20708;-66
2023/03/10 02:28:05;;;;;;;4.70;4.50;;;10.10;99.90;;;;;;5030038;28;20183;-66
2023/03/10 02:30:41;;;;;;;4.83;4.63;;;9.90;99.90;;;;;;5029885;28;20199;-66
2023/03/10 02:33:11;;;;;;;4.70;4.50;;;9.80;99.90;;;;;;5031405;28;20167;-66
2023/03/10 02:35:37;;;;;;;4.83;4.63;;;9.70;99.90;;;;;;5011717;28;20206;-66
2023/03/10 02:38:03;;;;;;;4.77;4.57;;;9.70;99.90;;;;;;5011666;28;20176;-67
2023/03/10 02:40:58;;;;;;;5.00;4.80;;;9.60;99.90;;;;;;5029589;28;20224;-66
2023/03/10 02:43:28;;;;;;;5.00;4.80;;;9.60;99.90;;;;;;5018246;28;20249;-66
2023/03/10 02:45:58;;;;;;;4.57;4.37;;;9.60;99.90;;;;;;5031201;28;20286;-66
2023/03/10 02:48:29;;;;;;;4.80;4.60;;;9.60;99.90;;;;;;5031194;28;20164;-66
2023/03/10 02:50:58;;;;;;;5.00;4.70;;;9.60;99.90;;;;;;5011083;28;20247;-66
2023/03/10 02:53:26;;;;;;;5.50;5.00;;;9.70;99.90;;;;;;5010223;28;20230;-66
2023/03/10 02:55:53;;;;;;;4.90;4.70;;;9.70;99.90;;;;;;5046335;28;20180;-66
2023/03/10 02:58:19;;;;;;;5.27;4.87;;;9.80;99.90;;;;;;5031535;28;20225;-66
2023/03/10 03:00:46;;;;;;;4.60;4.40;;;9.80;99.90;;;;;;5034200;28;20207;-66
2023/03/10 03:03:13;;;;;;;4.60;4.40;;;9.90;99.90;;;;;;5033758;28;20541;-66
2023/03/10 03:05:39;;;;;;;8.17;5.77;;;9.90;99.90;;;;;;5034386;28;20187;-66
2023/03/10 03:08:06;;;;;;;4.90;4.60;;;9.90;99.90;;;;;;5035020;28;20171;-66
2023/03/10 03:10:33;;;;;;;5.10;4.80;;;9.90;99.90;;;;;;5034048;28;20324;-65
2023/03/10 03:12:59;;;;;;;5.50;5.10;;;9.90;99.90;;;;;;5034685;28;20647;-65
2023/03/10 03:15:25;;;;;;;6.30;5.27;;;9.90;99.90;;;;;;5034488;28;20176;-66
2023/03/10 03:17:53;;;;;;;5.00;4.80;;;9.90;99.90;;;;;;5033095;28;20178;-66
2023/03/10 03:20:20;;;;;;;5.00;4.80;;;10.00;99.90;;;;;;5034307;28;20566;-66
2023/03/10 03:22:46;;;;;;;5.67;5.30;;;9.90;99.90;;;;;;5034151;28;20175;-66
2023/03/10 03:25:15;;;;;;;5.20;4.90;;;9.90;99.90;;;;;;5034558;28;20178;-65
2023/03/10 03:27:41;;;;;;;5.80;5.30;;;9.90;99.90;;;;;;5034272;28;21752;-65
2023/03/10 03:30:12;;;;;;;5.43;5.10;;;9.80;99.90;;;;;;5034246;28;20187;-65
2023/03/10 03:32:37;;;;;;;6.50;5.83;;;9.90;99.90;;;;;;5033804;28;20184;-66
2023/03/10 03:35:07;;;;;;;5.80;5.40;;;9.80;99.90;;;;;;5034050;28;20732;-66
2023/03/10 03:37:33;;;;;;;8.20;5.50;;;9.80;99.90;;;;;;5032577;28;20183;-65
2023/03/10 03:39:58;;;;;;;5.80;5.50;;;9.80;99.90;;;;;;5033861;28;20205;-66
2023/03/10 03:42:24;;;;;;;4.70;4.50;;;9.80;99.90;;;;;;5033974;28;20182;-65
2023/03/10 03:44:49;;;;;;;5.50;5.00;;;9.80;99.90;;;;;;5034120;28;20179;-65
2023/03/10 03:47:15;;;;;;;4.77;4.47;;;9.70;99.90;;;;;;5033877;28;20577;-65
2023/03/10 03:49:41;;;;;;;4.97;4.77;;;9.70;99.90;;;;;;5033694;28;20191;-65
2023/03/10 03:52:07;;;;;;;5.27;4.77;;;9.70;99.90;;;;;;5032509;28;20671;-65
2023/03/10 03:54:32;;;;;;;6.00;5.17;;;9.60;99.90;;;;;;5034008;28;20175;-65
2023/03/10 03:56:58;;;;;;;5.30;4.90;;;9.60;99.90;;;;;;5033575;28;20554;-66
2023/03/10 03:59:24;;;;;;;4.80;4.60;;;9.60;99.90;;;;;;5033620;28;20198;-65
2023/03/10 04:01:49;;;;;;;4.90;4.70;;;9.60;99.90;;;;;;5032189;28;20690;-65
2023/03/10 04:04:15;;;;;;;6.17;5.30;;;9.60;99.90;;;;;;5033887;28;20237;-65
2023/03/10 04:06:41;;;;;;;5.97;5.37;;;9.50;99.90;;;;;;5033584;28;20242;-65
2023/03/10 04:09:09;;;;;;;4.80;4.60;;;9.50;99.90;;;;;;5033209;28;20199;-64
2023/03/10 04:11:35;;;;;;;5.07;4.77;;;9.50;99.90;;;;;;5033289;28;20179;-65
2023/03/10 04:14:00;;;;;;;7.53;4.80;;;9.50;99.90;;;;;;5033525;28;20649;-65
2023/03/10 04:16:26;;;;;;;6.33;5.50;;;9.50;99.90;;;;;;5033600;28;20179;-65
2023/03/10 04:18:52;;;;;;;6.03;5.67;;;9.50;99.90;;;;;;5033026;28;20190;-64
2023/03/10 04:21:18;;;;;;;5.17;4.93;;;9.50;99.90;;;;;;5033418;28;20237;-65
2023/03/10 04:23:43;;;;;;;6.07;5.23;;;9.50;99.90;;;;;;5033058;28;20175;-65
2023/03/10 04:26:09;;;;;;;5.53;5.23;;;9.50;99.90;;;;;;5033607;28;20528;-64
2023/03/10 04:28:36;;;;;;;5.93;5.63;;;9.50;99.90;;;;;;5032966;28;20606;-64
2023/03/10 04:31:01;;;;;;;4.97;4.77;;;9.50;99.90;;;;;;5032106;28;20183;-65
2023/03/10 04:33:27;;;;;;;6.17;5.60;;;9.50;99.90;;;;;;5033063;28;20179;-65
2023/03/10 04:35:53;;;;;;;6.53;5.80;;;9.50;99.90;;;;;;5033220;28;20175;-64
2023/03/10 04:38:19;;;;;;;5.50;5.10;;;9.40;99.90;;;;;;5032922;28;20175;-65
2023/03/10 04:40:44;;;;;;;5.80;5.40;;;9.50;99.90;;;;;;5031502;28;20656;-64
2023/03/10 04:43:10;;;;;;;6.07;5.70;;;9.40;99.90;;;;;;5033081;28;20164;-64
2023/03/10 04:45:36;;;;;;;5.40;5.07;;;9.50;99.90;;;;;;5032766;28;20183;-65
2023/03/10 04:48:02;;;;;;;6.13;5.17;;;9.40;99.90;;;;;;5033209;28;20564;-65
2023/03/10 04:50:28;;;;;;;4.83;4.63;;;9.40;99.90;;;;;;5032332;28;20282;-65
2023/03/10 04:52:53;;;;;;;5.93;5.43;;;9.40;99.90;;;;;;5032703;28;20263;-65
2023/03/10 04:55:19;;;;;;;6.20;5.40;;;9.40;99.90;;;;;;5032651;28;20237;-65
2023/03/10 04:57:44;;;;;;;5.57;5.27;;;9.50;99.90;;;;;;5032775;28;20191;-65
2023/03/10 05:00:11;;;;;;;5.77;5.37;;;9.40;99.90;;;;;;5032228;28;20277;-65
2023/03/10 05:02:38;;;;;;;6.20;5.47;;;9.40;99.90;;;;;;5032758;28;20267;-65
2023/03/10 05:05:04;;;;;;;5.97;5.47;;;9.40;99.90;;;;;;5032315;28;20237;-64
2023/03/10 05:07:29;;;;;;;6.70;6.23;;;9.30;99.90;;;;;;5032552;28;20211;-65
2023/03/10 05:09:55;;;;;;;9.90;7.50;;;9.30;99.90;;;;;;5031850;28;20714;-65
2023/03/10 05:12:21;;;;;;;8.00;7.40;;;9.30;99.90;;;;;;5032690;28;20226;-65
2023/03/10 05:14:46;;;;;;;7.60;7.03;;;9.30;99.90;;;;;;5032143;28;20258;-65
2023/03/10 05:17:12;;;;;;;6.33;5.87;;;9.30;99.90;;;;;;5032154;28;20179;-65
2023/03/10 05:19:38;;;;;;;5.63;5.43;;;9.40;99.90;;;;;;5030671;28;20568;-65
2023/03/10 05:22:05;;;;;;;6.07;5.77;;;9.30;99.90;;;;;;5031634;28;20183;-65
2023/03/10 05:24:31;;;;;;;5.90;5.60;;;9.30;99.90;;;;;;5032393;28;20477;-64
2023/03/10 05:26:56;;;;;;;6.23;5.60;;;9.20;99.90;;;;;;5031906;28;20775;-67
2023/03/10 05:29:22;;;;;;;5.73;5.53;;;9.20;99.90;;;;;;5012141;28;20184;-65
2023/03/10 05:31:48;;;;;;;6.20;5.90;;;9.20;99.90;;;;;;5012597;28;20307;-66
2023/03/10 05:34:14;;;;;;;5.90;5.60;;;9.10;99.90;;;;;;5030932;28;20176;-67
2023/03/10 05:36:40;;;;;;;5.50;5.20;;;9.10;99.90;;;;;;5031976;28;20175;-68
2023/03/10 05:39:08;;;;;;;5.53;5.23;;;9.10;99.90;;;;;;5031498;28;20288;-65
2023/03/10 05:41:34;;;;;;;6.00;5.60;;;9.10;99.90;;;;;;5031913;28;20327;-65
2023/03/10 05:44:00;;;;;;;6.17;5.87;;;9.10;99.90;;;;;;5031921;28;20188;-65
2023/03/10 05:46:25;;;;;;;6.50;5.97;;;9.10;99.90;;;;;;5031076;28;20253;-65
2023/03/10 05:48:51;;;;;;;6.20;5.90;;;9.10;99.90;;;;;;5031817;28;20164;-65
2023/03/10 05:51:17;;;;;;;6.03;5.73;;;9.00;99.90;;;;;;5030327;28;20164;-65
2023/03/10 05:53:43;;;;;;;6.20;5.80;;;9.00;99.90;;;;;;5031571;28;20184;-65
2023/03/10 05:56:18;;;;;;;6.50;6.20;;;9.00;99.90;;;;;;5031976;28;20171;-65
2023/03/10 05:58:44;;;;;;;6.10;5.53;;;9.00;99.90;;;;;;5031565;28;20262;-65
2023/03/10 06:01:10;;;;;;;5.97;5.47;;;9.00;99.90;;;;;;5031313;28;20222;-66
2023/03/10 06:03:36;;;;;;;5.97;5.60;;;9.00;99.90;;;;;;5031400;28;20180;-64
2023/03/10 06:06:03;;;;;;;6.67;6.10;;;9.00;99.90;;;;;;5031471;28;20206;-64
2023/03/10 06:08:29;;;;;;;6.97;5.70;;;9.00;99.90;;;;;;5031419;28;20175;-65
2023/03/10 06:10:56;;;;;;;5.83;5.53;;;9.00;99.90;;;;;;5031048;28;20302;-65
2023/03/10 06:13:22;;;;;;;6.53;6.03;;;9.00;99.90;;;;;;5031382;28;20417;-65
2023/03/10 06:15:57;;;;;;;6.40;5.70;;;9.00;99.90;;;;;;5031525;28;20174;-64
2023/03/10 06:18:23;;;;;;;6.67;6.27;;;9.00;99.90;;;;;;5031710;28;20197;-65
2023/03/10 06:20:51;;;;;;;5.83;5.53;;;9.00;99.90;;;;;;5030837;28;20192;-64
2023/03/10 06:23:17;;;;;;;8.37;5.70;;;9.00;99.90;;;;;;5031416;28;20174;-64
2023/03/10 06:25:43;;;;;;;8.13;6.10;;;9.00;99.90;;;;;;5031190;28;20203;-64
2023/03/10 06:28:09;;;;;;;6.40;5.47;;;9.00;99.90;;;;;;5031451;28;20203;-65
2023/03/10 06:30:35;;;;;;;5.83;5.37;;;9.10;99.90;;;;;;5031099;28;20218;-65
2023/03/10 06:33:01;;;;;;;6.13;5.70;;;9.10;99.90;;;;;;5031111;28;20581;-64
2023/03/10 06:35:28;;;;;;;5.50;5.20;;;9.10;99.90;;;;;;5035320;28;20672;-65
2023/03/10 06:37:54;;;;;;;6.07;5.70;;;9.10;99.90;;;;;;5035237;28;20226;-67
2023/03/10 06:40:20;;;;;;;7.60;5.60;;;9.10;99.90;;;;;;5035211;28;20223;-67
2023/03/10 06:42:45;;;;;;;8.23;6.00;;;9.00;99.90;;;;;;5035067;28;20214;-66
2023/03/10 06:45:15;;;;;;;6.57;6.07;;;9.10;99.90;;;;;;5035121;28;20179;-66
2023/03/10 06:47:41;;;;;;;6.43;5.97;;;9.00;99.90;;;;;;5035195;28;20269;-67
2023/03/10 06:50:07;;;;;;;6.73;6.00;;;9.00;99.90;;;;;;5034703;28;20709;-66
2023/03/10 06:52:34;;;;;;;5.47;5.27;;;9.00;99.90;;;;;;5037338;28;20167;-66
2023/03/10 06:55:00;;;;;;;6.00;5.70;;;9.10;99.90;;;;;;5034753;28;20175;-65
2023/03/10 06:57:26;;;;;;;5.93;5.57;;;9.10;99.90;;;;;;5035236;28;20171;-66
2023/03/10 06:59:53;;;;;;;6.43;6.03;;;9.10;99.90;;;;;;5034391;28;20210;-66
2023/03/10 07:02:18;;;;;;;6.00;5.57;;;9.10;99.90;;;;;;5033807;28;20179;-65
2023/03/10 07:04:45;;;;;;;6.47;5.97;;;9.10;99.90;;;;;;5034648;28;20202;-65
2023/03/10 07:07:11;;;;;;;6.23;5.87;;;9.20;99.90;;;;;;5035018;28;20719;-66
2023/03/10 07:09:36;;;;;;;5.83;5.53;;;9.20;99.90;;;;;;5034125;28;20214;-66
2023/03/10 07:12:02;;;;;;;6.37;5.63;;;9.30;99.90;;;;;;5033215;28;20179;-67
2023/03/10 07:14:28;;;;;;;6.17;5.57;;;9.30;99.90;;;;;;5034436;28;20226;-66
2023/03/10 07:16:53;;;;;;;5.87;5.23;;;9.40;99.90;;;;;;5034291;28;20183;-67
2023/03/10 07:19:19;;;;;;;7.30;6.43;;;9.40;99.90;;;;;;5034174;28;20199;-67
2023/03/10 07:21:45;;;;;;;5.20;5.00;;;9.50;99.90;;;;;;5034128;28;20190;-66
2023/03/10 07:24:10;;;;;;;6.17;5.40;;;9.60;99.90;;;;;;5034277;28;20585;-67
2023/03/10 07:26:36;;;;;;;6.10;5.63;;;9.70;99.90;;;;;;5034208;28;20203;-66
2023/03/10 07:29:03;;;;;;;5.27;4.97;;;9.70;99.90;;;;;;5034296;28;20176;-66
2023/03/10 07:31:29;;;;;;;5.40;4.90;;;9.80;99.90;;;;;;5033785;28;20594;-67
2023/03/10 07:33:54;;;;;;;5.00;4.80;;;9.90;99.90;;;;;;5034320;28;20290;-66
2023/03/10 07:36:21;;;;;;;5.63;5.20;;;10.00;99.90;;;;;;5032924;28;20183;-67
2023/03/10 07:38:47;;;;;;;8.00;7.20;;;10.10;99.90;;;;;;5034079;28;20168;-66
2023/03/10 07:41:15;;;;;;;6.10;5.70;;;10.20;99.90;;;;;;5032149;28;20302;-66
2023/03/10 07:43:41;;;;;;;5.77;5.37;;;10.30;99.90;;;;;;5034076;28;20194;-67
2023/03/10 07:46:10;;;;;;;5.73;5.23;;;10.50;99.90;;;;;;5033267;28;20274;-67
2023/03/10 07:48:36;;;;;;;5.43;5.03;;;10.80;99.90;;;;;;5033913;28;20251;-67
2023/03/10 07:51:02;;;;;;;4.50;4.30;;;11.10;99.90;;;;;;5033255;28;20231;-66
2023/03/10 07:53:29;;;;;;;5.33;5.13;;;11.20;99.90;;;;;;5034001;28;20735;-67
2023/03/10 07:55:55;;;;;;;5.33;5.07;;;11.20;99.90;;;;;;5033626;28;20544;-67
2023/03/10 07:58:21;;;;;;;5.93;5.53;;;11.20;99.90;;;;;;5033886;28;20192;-66
2023/03/10 08:00:54;;;;;;;6.33;5.77;;;11.10;99.90;;;;;;5033171;28;20202;-66
2023/03/10 08:03:20;;;;;;;5.83;5.33;;;11.00;99.90;;;;;;5033660;28;20707;-66
2023/03/10 08:05:46;;;;;;;5.63;5.33;;;11.00;99.90;;;;;;5033477;28;20211;-66
2023/03/10 08:08:11;;;;;;;5.90;5.40;;;11.00;99.90;;;;;;5033477;28;20164;-67
2023/03/10 08:10:37;;;;;;;4.93;4.53;;;11.00;99.90;;;;;;5033608;28;20206;-66
2023/03/10 08:13:03;;;;;;;5.63;5.17;;;11.10;99.90;;;;;;5033288;28;20169;-67
2023/03/10 08:15:28;;;;;;;5.33;5.03;;;11.20;99.90;;;;;;5033540;28;20553;-66
2023/03/10 08:17:54;;;;;;;10.03;4.90;;;11.20;99.90;;;;;;5033168;28;20180;-63
2023/03/10 08:20:20;;;;;;;9.13;4.90;;;11.30;99.90;;;;;;5035175;28;20215;-64
2023/03/10 08:22:45;;;;;;;5.00;4.80;;;11.30;99.90;;;;;;5033028;28;20203;-65
2023/03/10 08:25:14;;;;;;;5.27;4.87;;;11.40;99.90;;;;;;5033251;28;20175;-65
2023/03/10 08:27:40;;;;;;;5.47;5.10;;;11.50;99.90;;;;;;5033226;28;20200;-65
2023/03/10 08:30:06;;;;;;;7.20;5.83;;;11.70;99.90;;;;;;5030600;28;20191;-65
2023/03/10 08:32:32;;;;;;;4.87;4.57;;;11.80;99.90;;;;;;5032936;28;20175;-65
2023/03/10 08:34:57;;;;;;;4.67;4.47;;;11.90;99.90;;;;;;5032889;28;20266;-65
2023/03/10 08:37:23;;;;;;;9.00;6.20;;;12.10;99.90;;;;;;5031687;28;20413;-64
2023/03/10 08:39:52;;;;;;;5.90;5.40;;;12.10;99.90;;;;;;5031345;28;20629;-65
2023/03/10 08:42:17;;;;;;;7.87;5.67;;;12.20;99.90;;;;;;5032946;28;20176;-64
2023/03/10 08:44:43;;;;;;;5.33;5.03;;;12.20;99.90;;;;;;5032877;28;20183;-65
2023/03/10 08:47:09;;;;;;;5.50;5.03;;;12.30;99.90;;;;;;5032710;28;20566;-64
2023/03/10 08:49:35;;;;;;;10.20;5.40;;;12.30;99.90;;;;;;5032493;28;20199;-64
2023/03/10 08:52:01;;;;;;;5.30;4.80;;;12.50;99.90;;;;;;5032433;28;20175;-65
2023/03/10 08:54:27;;;;;;;6.03;5.47;;;12.50;99.90;;;;;;5032844;28;20229;-64
2023/03/10 08:56:52;;;;;;;5.93;5.47;;;12.50;99.90;;;;;;5031536;28;20183;-64
2023/03/10 08:59:18;;;;;;;6.73;5.17;;;12.60;99.90;;;;;;5032265;28;20234;-65
2023/03/10 09:01:45;;;;;;;5.73;5.33;;;12.60;99.90;;;;;;5028647;28;20194;-64
2023/03/10 09:04:10;;;;;;;9.10;6.40;;;12.60;99.90;;;;;;5032711;28;20254;-64
2023/03/10 09:06:37;;;;;;;7.33;5.57;;;12.70;99.90;;;;;;5032195;28;20309;-65
2023/03/10 09:09:05;;;;;;;6.47;6.00;;;12.90;99.90;;;;;;5031994;28;20183;-64
2023/03/10 09:11:33;;;;;;;5.63;5.13;;;13.10;99.90;;;;;;5032407;28;20176;-65
2023/03/10 09:13:59;;;;;;;5.03;4.73;;;13.30;99.90;;;;;;5032314;28;20179;-64
2023/03/10 09:16:27;;;;;;;7.27;6.77;;;13.50;99.90;;;;;;5032374;28;20238;-65
2023/03/10 09:18:57;;;;;;;6.07;5.47;;;13.50;99.90;;;;;;5032195;28;20230;-64
2023/03/10 09:21:22;;;;;;;6.63;5.20;;;13.60;99.90;;;;;;5031966;28;20184;-64
2023/03/10 09:23:51;;;;;;;6.57;4.73;;;13.50;99.90;;;;;;5031927;28;20266;-64
2023/03/10 09:26:18;;;;;;;5.10;4.60;;;13.50;99.90;;;;;;5032296;28;20195;-64
2023/03/10 09:28:46;;;;;;;5.27;4.73;;;13.40;99.90;;;;;;5031896;28;20226;-65
2023/03/10 09:31:17;;;;;;;4.87;4.57;;;13.40;99.90;;;;;;5011916;28;20175;-64
2023/03/10 09:33:42;;;;;;;4.97;4.60;;;13.60;99.90;;;;;;5012406;28;20184;-65
2023/03/10 09:36:08;;;;;;;5.40;4.90;;;13.70;99.90;;;;;;5031793;28;20637;-65
2023/03/10 09:38:34;;;;;;;4.90;4.60;;;13.80;99.90;;;;;;5031617;28;20194;-65
2023/03/10 09:41:25;;;;;;;5.67;5.10;;;13.90;99.90;;;;;;5031433;28;20192;-65
2023/03/10 09:44:06;;;;;;;5.40;4.97;;;13.90;99.90;;;;;;5031709;28;20548;-65
2023/03/10 09:46:49;;;;;;;6.40;5.03;;;14.00;99.90;;;;;;5007947;28;20737;-64
2023/03/10 09:49:19;;;;;;;5.30;4.50;;;14.00;99.90;;;;;;5018110;28;20191;-64
2023/03/10 09:51:48;;;;;;;6.73;4.40;;;14.20;99.90;;;;;;5008040;28;20642;-64
2023/03/10 09:54:39;;;;;;;6.60;4.63;;;14.40;99.90;;;;;;5008304;28;20207;-65
2023/03/10 09:57:14;;;;;;;4.30;4.00;;;14.60;99.90;;;;;;5010630;28;20562;-64
2023/03/10 09:59:44;;;;;;;4.57;4.27;;;15.00;99.90;;;;;;5027787;28;20265;-65
2023/03/10 10:02:35;;;;;;;4.17;3.90;;;15.40;99.90;;;;;;5028268;28;20183;-65
2023/03/10 10:05:06;;;;;;;7.20;4.87;;;15.50;99.90;;;;;;5018843;28;20195;-64
2023/03/10 10:07:47;;;;;;;4.70;4.30;;;15.30;99.90;;;;;;5027567;28;20234;-65
2023/03/10 10:10:28;;;;;;;7.57;4.30;;;15.40;99.90;;;;;;5028547;28;20251;-64
2023/03/10 10:12:59;;;;;;;5.97;4.80;;;15.80;99.90;;;;;;5026680;28;20657;-65
2023/03/10 10:15:27;;;;;;;4.33;3.93;;;16.20;99.90;;;;;;5028247;28;20187;-64
2023/03/10 10:18:03;;;;;;;4.03;3.73;;;16.30;99.90;;;;;;5027938;28;20187;-65
2023/03/10 10:20:38;;;;;;;3.93;3.63;;;16.50;99.90;;;;;;5028149;28;20248;-64
2023/03/10 10:23:14;;;;;;;4.13;3.93;;;17.00;99.90;;;;;;5026918;28;20527;-64
2023/03/10 10:25:40;;;;;;;4.30;4.10;;;17.00;99.90;;;;;;5028265;28;20189;-64
2023/03/10 10:28:18;;;;;;;3.77;3.50;;;16.70;99.90;;;;;;5028026;28;20207;-65
2023/03/10 10:30:44;;;;;;;3.87;3.57;;;16.30;99.90;;;;;;5025224;28;20203;-64
2023/03/10 10:33:12;;;;;;;6.63;4.10;;;15.90;99.90;;;;;;5028361;28;20653;-65
2023/03/10 10:35:40;;;;;;;4.47;4.17;;;15.60;99.90;;;;;;5027987;28;20190;-65
2023/03/10 10:38:08;;;;;;;7.73;4.00;;;15.30;99.90;;;;;;5028515;28;20190;-65
2023/03/10 10:40:45;;;;;;;4.73;4.17;;;14.90;99.90;;;;;;5027655;28;20294;-65
2023/03/10 10:43:16;;;;;;;5.40;4.10;;;14.70;99.90;;;;;;5028425;28;20217;-65
2023/03/10 10:45:42;;;;;;;4.40;4.20;;;14.50;99.90;;;;;;5026168;28;20191;-65
2023/03/10 10:48:39;;;;;;;4.10;3.90;;;14.30;99.90;;;;;;5025234;28;20584;-64
2023/03/10 10:51:25;;;;;;;4.30;4.00;;;14.10;99.90;;;;;;5028056;28;20289;-64
2023/03/10 10:53:51;;;;;;;4.47;4.07;;;13.90;99.90;;;;;;5028100;28;20172;-65
2023/03/10 10:56:18;;;;;;;4.17;3.97;;;13.20;99.90;;;;;;5028041;28;20190;-65
2023/03/10 10:59:04;;;;;;;5.63;4.90;;;12.70;99.90;;;;;;5027952;28;20187;-65
2023/03/10 11:01:54;;;;;;;4.50;4.30;;;12.20;99.90;;;;;;5027746;28;20187;-64
2023/03/10 11:04:21;;;;;;;7.30;4.60;;;11.80;99.90;;;;;;5016680;28;20925;-65
2023/03/10 11:06:49;;;;;;;5.73;5.17;;;11.70;99.90;;;;;;5028101;28;20199;-65
2023/03/10 11:09:22;;;;;;;6.33;5.33;;;11.60;99.90;;;;;;5027700;28;20218;-65
2023/03/10 11:12:18;;;;;;;5.93;5.43;;;11.70;99.90;;;;;;5027693;28;20218;-65
2023/03/10 11:15:08;;;;;;;4.73;4.47;;;11.70;99.90;;;;;;5027458;28;20188;-65
2023/03/10 11:17:42;;;;;;;4.47;4.17;;;11.60;99.90;;;;;;5027605;28;20207;-65
2023/03/10 11:20:26;;;;;;;4.90;4.70;;;11.50;99.90;;;;;;5029061;28;20218;-64
2023/03/10 11:23:06;;;;;;;5.63;5.10;;;11.40;99.90;;;;;;5031521;28;20635;-65
2023/03/10 11:25:44;;;;;;;4.90;4.70;;;11.40;99.90;;;;;;5030110;28;20194;-65
2023/03/10 11:28:32;;;;;;;6.47;6.07;;;11.30;99.90;;;;;;5029967;28;20230;-65
2023/03/10 11:31:03;;;;;;;5.23;4.90;;;11.20;99.90;;;;;;5030732;28;20207;-65
2023/03/10 11:34:07;;;;;;;5.50;4.87;;;11.10;99.90;;;;;;5031572;28;20175;-65
2023/03/10 11:36:44;;;;;;;4.50;4.30;;;11.00;99.90;;;;;;5030794;28;20612;-65
2023/03/10 11:39:23;;;;;;;5.93;5.50;;;10.90;99.90;;;;;;5031218;28;20583;-66
2023/03/10 11:41:54;;;;;;;6.40;5.77;;;10.70;99.90;;;;;;5029535;28;20179;-65
2023/03/10 11:44:45;;;;;;;5.10;4.70;;;10.60;99.90;;;;;;5029410;28;20187;-65
2023/03/10 11:47:23;;;;;;;5.20;5.00;;;10.50;99.90;;;;;;5020597;28;20691;-65
2023/03/10 11:49:57;;;;;;;5.23;4.93;;;10.50;99.90;;;;;;5030479;28;20195;-65
2023/03/10 11:52:25;;;;;;;5.03;4.60;;;10.50;99.90;;;;;;5030891;28;20214;-65
2023/03/10 11:55:01;;;;;;;4.60;4.40;;;10.50;99.90;;;;;;5030507;28;20171;-65
2023/03/10 11:57:35;;;;;;;5.13;4.83;;;10.50;99.90;;;;;;5030698;28;20175;-65
2023/03/10 12:00:06;;;;;;;5.47;5.17;;;10.60;99.90;;;;;;5029481;28;20257;-65
2023/03/10 12:02:53;;;;;;;7.77;5.10;;;10.70;99.90;;;;;;5028784;28;20198;-65
2023/03/10 12:05:22;;;;;;;5.73;5.30;;;10.60;99.90;;;;;;5030349;28;20189;-65
2023/03/10 12:07:52;;;;;;;4.83;4.50;;;10.60;99.90;;;;;;5030463;28;20222;-65
2023/03/10 12:10:24;;;;;;;4.80;4.60;;;10.60;99.90;;;;;;5028949;28;20211;-65
2023/03/10 12:12:52;;;;;;;5.30;5.10;;;10.50;99.90;;;;;;5030116;28;20794;-65
2023/03/10 12:15:38;;;;;;;5.43;5.17;;;10.60;99.90;;;;;;5030550;28;20180;-65
2023/03/10 12:18:06;;;;;;;5.20;5.00;;;10.70;99.90;;;;;;5030606;28;20615;-66
2023/03/10 12:20:34;;;;;;;4.90;4.70;;;10.90;99.90;;;;;;5030095;28;20331;-66
2023/03/10 12:23:25;;;;;;;6.87;6.03;;;11.10;99.90;;;;;;5030507;28;20179;-65
2023/03/10 12:25:51;;;;;;;4.93;4.73;;;11.20;99.90;;;;;;5030037;28;20923;-66
2023/03/10 12:28:24;;;;;;;4.83;4.63;;;11.10;99.90;;;;;;5028745;28;20194;-66
2023/03/10 12:30:58;;;;;;;5.27;4.90;;;11.10;99.90;;;;;;5029863;28;20207;-65
2023/03/10 12:33:30;;;;;;;5.37;5.17;;;11.10;99.90;;;;;;5028513;28;20187;-65
2023/03/10 12:36:06;;;;;;;4.77;4.57;;;11.20;99.90;;;;;;5013033;28;20183;-65
2023/03/10 12:38:49;;;;;;;5.10;4.80;;;11.20;99.90;;;;;;5029847;28;20187;-65
2023/03/10 12:41:27;;;;;;;4.50;4.30;;;11.30;99.90;;;;;;5028424;28;20645;-65
2023/03/10 12:44:26;;;;;;;4.60;4.40;;;11.20;99.90;;;;;;5029773;28;20218;-65
2023/03/10 12:47:07;;;;;;;4.50;4.30;;;11.20;99.90;;;;;;5028799;28;20345;-65
2023/03/10 12:50:15;;;;;;;4.93;4.73;;;11.10;99.90;;;;;;5029373;28;20210;-65
2023/03/10 12:52:43;;;;;;;5.00;4.80;;;11.20;99.90;;;;;;5016619;28;20581;-65
2023/03/10 12:55:26;;;;;;;5.53;5.27;;;11.20;99.90;;;;;;5029048;28;20179;-65
2023/03/10 12:58:14;;;;;;;4.60;4.40;;;11.10;99.90;;;;;;5028975;28;20187;-65
2023/03/10 13:00:56;;;;;;;4.60;4.40;;;11.10;99.90;;;;;;5029375;28;20684;-64
2023/03/10 13:03:40;;;;;;;4.40;4.20;;;11.00;99.90;;;;;;5029264;28;20199;-64